• Join FlightAware (Why Join?)
  • Login
  • US Flag 
11:57PM EDT


 

Airport Tracker/Info


-or-


 

Live Flight TrackerFlight Track Log ✈ TAM3750 ✈ 25-May-2013 ✈ SBGR / GRU - SBEG / MAO

Flight Track Log - Related Links

Times and Time Zones

All times are in EDT time to prevent confusion due to time zone crossing. See the TAM3750 flight status page for this flight to view local times or setup timezone preferences in your user account.

Time Position Orientation Groundspeed Altitude Reporting Facility
EDT Latitude Longitude Course Direction KTS MPH feet Rate Location/Type
07:35PM -23.4300 -46.4870 33° Northeast 9 10  Level FlightAware
07:37PM -23.4310 -46.4840 110° East 11 13 600 Level FlightAware
07:37PM -23.4320 -46.4840 180° South 9 10 780 Level FlightAware
07:38PM -23.4340 -46.4830 155° Southeast 11 13 840 Level FlightAware
07:40PM -23.4340 -46.4820 90° East 23 26 1,320 Level FlightAware
07:41PM -23.4220 -46.4380 73° East 177 204 3,300 2,160 Climbing FlightAware
07:42PM -23.4350 -46.4120 119° Southeast 193 222 4,000 1,080 Climbing FlightAware
07:42PM -23.4670 -46.4330 211° Southwest 239 275 4,700 1,560 Climbing FlightAware
07:42PM -23.4830 -46.4570 234° Southwest 242 278 5,500 1,620 Climbing FlightAware
07:43PM -23.4920 -46.4680 228° Southwest 253 291 5,700 1,020 Climbing FlightAware
07:43PM -23.5150 -46.4990 231° Southwest 280 322 6,200 1,500 Climbing FlightAware
07:44PM -23.5370 -46.5290 231° Southwest 286 329 7,200 2,100 Climbing FlightAware
07:44PM -23.5540 -46.5640 242° Southwest 286 329 8,200 1,740 Climbing FlightAware
07:45PM -23.5540 -46.5890 270° West 291 335 8,800 1,560 Climbing FlightAware
07:45PM -23.5510 -46.6260 275° West 291 335 9,600 1,740 Climbing FlightAware
07:46PM -23.5450 -46.7220 274° West 333 383 10,900 1,260 Climbing FlightAware
07:46PM -23.5410 -46.7990 273° West 367 422 11,600 1,080 Climbing FlightAware
07:47PM -23.5370 -46.8700 274° West 385 443 12,400 1,560 Climbing FlightAware
07:48PM -23.5270 -46.9640 277° West 396 456 13,800 1,680 Climbing FlightAware
07:49PM -23.4970 -47.0350 295° West 400 460 14,900 1,680 Climbing FlightAware
07:49PM -23.4630 -47.1170 294° West 405 466 16,200 1,500 Climbing FlightAware
07:50PM -23.4300 -47.1950 295° West 416 479 17,100 1,380 Climbing FlightAware
07:51PM -23.3970 -47.2730 295° West 421 484 18,100 1,560 Climbing FlightAware
07:51PM -23.3620 -47.3570 294° West 422 486 19,300 1,500 Climbing FlightAware
07:52PM -23.3290 -47.4360 294° West 427 491 20,200 1,200 Climbing FlightAware
07:53PM -23.2950 -47.5160 295° West 432 497 21,000 1,140 Climbing FlightAware
07:53PM -23.2590 -47.6020 294° West 437 503 21,800 1,140 Climbing FlightAware
07:54PM -23.2220 -47.6900 295° West 439 505 22,700 1,200 Climbing FlightAware
07:55PM -23.1910 -47.7610 295° West 442 509 23,400 1,020 Climbing FlightAware
07:56PM -23.1510 -47.8570 294° West 445 512 24,200 960 Climbing FlightAware
07:56PM -23.1170 -47.9370 295° West 449 517 24,800 840 Climbing FlightAware
07:57PM -23.0660 -48.0250 302° West 456 525 25,400 1,080 Climbing FlightAware
07:58PM -23.0120 -48.1020 307° West 449 517 26,400 1,080 Climbing FlightAware
07:58PM -22.9620 -48.1740 307° West 452 520 26,900 1,140 Climbing FlightAware
07:59PM -22.9070 -48.2550 306° West 443 510 28,000 1,080 Climbing FlightAware
08:00PM -22.8610 -48.3210 307° West 445 512 28,400 840 Climbing FlightAware
08:00PM -22.8090 -48.3960 307° West 440 506 29,200 1,080 Climbing FlightAware
08:01PM -22.7540 -48.4760 307° West 432 497 30,000 540 Climbing FlightAware
08:02PM -22.7080 -48.5430 307° West 429 494 30,000  Level FlightAware
08:02PM -22.6600 -48.6110 307° West 432 497 30,000  Level FlightAware
08:03PM -22.6050 -48.6900 307° West 431 496 30,000  Level FlightAware
08:04PM -22.5540 -48.7630 307° West 430 495 30,000  Level FlightAware
08:05PM -22.5040 -48.8360 307° West 430 495 30,000  Level FlightAware
08:05PM -22.4540 -48.9070 307° West 428 493 30,000  Level FlightAware
08:06PM -22.4080 -48.9720 307° West 428 493 30,000  Level FlightAware
08:07PM -22.3550 -49.0480 307° West 429 494 30,000  Level FlightAware
08:07PM -22.3020 -49.1210 308° West 433 498 30,000  Level FlightAware
08:08PM -22.2430 -49.1870 314° West 437 503 30,000  Level FlightAware
08:09PM -22.1870 -49.2500 314° West 436 502 30,000  Level FlightAware
08:10PM -22.1270 -49.3150 315° West 437 503 30,000  Level FlightAware
08:10PM -22.0640 -49.3870 313° West 438 504 30,000  Level FlightAware
08:11PM -22.0040 -49.4530 314° West 439 505 30,000  Level FlightAware
08:12PM -21.9490 -49.5150 314° West 439 505 30,000 60 Level FlightAware
08:12PM -21.8890 -49.5810 314° West 436 502 30,100  Climbing FlightAware
08:13PM -21.8300 -49.6470 314° West 433 498 30,000 -120 Descending FlightAware
08:14PM -21.7720 -49.7110 314° West 432 497 30,000 -120 Level FlightAware
08:14PM -21.7160 -49.7740 314° West 432 497 29,900  Descending FlightAware
08:15PM -21.6570 -49.8380 315° West 432 497 30,000 60 Climbing FlightAware
08:16PM -21.6170 -49.8830 314° West 432 497 30,000  Level FlightAware
08:16PM -21.5540 -49.9530 314° West 432 497 30,000  Level FlightAware
08:17PM -21.4930 -50.0200 314° West 432 497 30,000  Level FlightAware
08:18PM -21.4370 -50.0810 315° West 431 496 30,000  Level FlightAware
08:18PM -21.3770 -50.1470 314° West 431 496 30,000  Level FlightAware
08:19PM -21.3230 -50.2080 314° West 431 496 30,000  Level FlightAware
08:20PM -21.2600 -50.2780 314° West 430 495 30,000  Level FlightAware
08:21PM -21.2050 -50.3390 314° West 429 494 30,000  Level FlightAware
08:21PM -21.1460 -50.4040 314° West 428 493 30,000  Level FlightAware
08:22PM -21.0890 -50.4680 314° West 427 491 30,000  Level FlightAware
08:23PM -21.0330 -50.5290 315° West 427 491 30,000  Level FlightAware
08:23PM -20.9730 -50.5950 314° West 427 491 30,000  Level FlightAware
08:24PM -20.9210 -50.6530 314° West 427 491 30,000  Level FlightAware
08:25PM -20.8540 -50.7270 314° West 427 491 30,000  Level FlightAware
08:25PM -20.8000 -50.7850 315° West 427 491 30,000  Level FlightAware
08:26PM -20.7430 -50.8460 315° West 427 491 30,000  Level FlightAware
08:27PM -20.6820 -50.9110 315° West 427 491 30,000  Level FlightAware
08:27PM -20.6240 -50.9720 315° West 426 490 30,000  Level FlightAware
08:28PM -20.5710 -51.0290 315° West 427 491 30,000  Level FlightAware
08:29PM -20.5060 -51.0980 315° West 426 490 30,000  Level FlightAware
08:30PM -20.4480 -51.1600 315° West 424 488 30,000  Level FlightAware
08:30PM -20.4000 -51.2100 316° Northwest 424 488 30,000  Level FlightAware
08:31PM -20.3300 -51.2810 316° Northwest 432 497 30,000  Level FlightAware
08:32PM -20.2700 -51.3140 333° Northwest 440 506 30,000  Level FlightAware
08:33PM -20.1440 -51.3840 332° Northwest 438 504 30,000  Level FlightAware
08:33PM -20.0880 -51.4160 332° Northwest 438 504 30,000  Level FlightAware
08:34PM -20.0150 -51.4570 332° Northwest 438 504 30,000  Level FlightAware
08:35PM -19.9070 -51.5190 332° Northwest 438 504 30,000 -180 Level FlightAware
08:38PM -19.7149 -51.6245 333° Northwest  Level Estimated
08:39PM -19.6212 -51.6759 333° Northwest  Level Estimated
08:40PM -19.5274 -51.7272 333° Northwest  Level Estimated
08:41PM -19.4337 -51.7785 333° Northwest  Level Estimated
08:42PM -19.3399 -51.8297 333° Northwest  Level Estimated
08:43PM -19.2461 -51.8808 333° Northwest  Level Estimated
08:44PM -19.1523 -51.9319 333° Northwest  Level Estimated
08:45PM -19.0585 -51.9829 333° Northwest  Level Estimated
08:46PM -18.9647 -52.0339 333° Northwest  Level Estimated
08:47PM -18.8708 -52.0848 333° Northwest  Level Estimated
08:48PM -18.7770 -52.1357 333° Northwest  Level Estimated
08:49PM -18.6831 -52.1865 333° Northwest  Level Estimated
08:50PM -18.5893 -52.2372 333° Northwest  Level Estimated
08:51PM -18.4953 -52.2879 333° Northwest  Level Estimated
08:52PM -18.4014 -52.3385 333° Northwest  Level Estimated
08:53PM -18.3075 -52.3891 333° Northwest  Level Estimated
08:54PM -18.2136 -52.4396 333° Northwest  Level Estimated
08:55PM -18.1196 -52.4901 333° Northwest  Level Estimated
08:56PM -18.0257 -52.5405 333° Northwest  Level Estimated
08:57PM -17.9317 -52.5909 333° Northwest  Level Estimated
08:58PM -17.8377 -52.6412 333° Northwest  Level Estimated
08:59PM -17.7437 -52.6914 333° Northwest  Level Estimated
09:00PM -17.6497 -52.7416 333° Northwest  Level Estimated
09:01PM -17.5557 -52.7918 333° Northwest  Level Estimated
09:02PM -17.4616 -52.8419 333° Northwest  Level Estimated
09:03PM -17.3676 -52.8919 333° Northwest  Level Estimated
09:04PM -17.2735 -52.9419 333° Northwest  Level Estimated
09:05PM -17.1794 -52.9918 333° Northwest  Level Estimated
09:06PM -17.0853 -53.0417 333° Northwest  Level Estimated
09:07PM -16.9912 -53.0915 333° Northwest  Level Estimated
09:08PM -16.8971 -53.1413 333° Northwest  Level Estimated
09:09PM -16.8030 -53.1911 333° Northwest  Level Estimated
09:10PM -16.7089 -53.2408 333° Northwest  Level Estimated
09:11PM -16.6147 -53.2904 333° Northwest  Level Estimated
09:12PM -16.5206 -53.3400 333° Northwest  Level Estimated
09:13PM -16.4264 -53.3895 333° Northwest  Level Estimated
09:14PM -16.3322 -53.4390 333° Northwest  Level Estimated
09:15PM -16.2380 -53.4885 333° Northwest  Level Estimated
09:16PM -16.1438 -53.5379 333° Northwest  Level Estimated
09:17PM -16.0496 -53.5872 333° Northwest  Level Estimated
09:18PM -15.9553 -53.6366 333° Northwest  Level Estimated
09:19PM -15.8611 -53.6858 333° Northwest  Level Estimated
09:20PM -15.7669 -53.7350 333° Northwest  Level Estimated
09:21PM -15.6726 -53.7842 333° Northwest  Level Estimated
09:22PM -15.5783 -53.8333 333° Northwest  Level Estimated
09:23PM -15.4840 -53.8824 333° Northwest  Level Estimated
09:24PM -15.3897 -53.9314 333° Northwest  Level Estimated
09:25PM -15.2954 -53.9804 333° Northwest  Level Estimated
09:26PM -15.2011 -54.0294 333° Northwest  Level Estimated
09:27PM -15.1068 -54.0783 333° Northwest  Level Estimated
09:28PM -15.0125 -54.1271 333° Northwest  Level Estimated
09:29PM -14.9181 -54.1759 333° Northwest  Level Estimated
09:30PM -14.8237 -54.2247 333° Northwest  Level Estimated
09:31PM -14.7294 -54.2734 333° Northwest  Level Estimated
09:32PM -14.6350 -54.3221 333° Northwest  Level Estimated
09:33PM -14.5406 -54.3708 333° Northwest  Level Estimated
09:34PM -14.4462 -54.4194 333° Northwest  Level Estimated
09:35PM -14.3518 -54.4679 334° Northwest  Level Estimated
09:36PM -14.2574 -54.5165 334° Northwest  Level Estimated
09:37PM -14.1629 -54.5649 334° Northwest  Level Estimated
09:38PM -14.0685 -54.6134 334° Northwest  Level Estimated
09:39PM -13.9740 -54.6618 334° Northwest  Level Estimated
09:40PM -13.8796 -54.7102 334° Northwest  Level Estimated
09:41PM -13.7851 -54.7585 334° Northwest  Level Estimated
09:42PM -13.6906 -54.8068 334° Northwest  Level Estimated
09:43PM -13.5962 -54.8550 334° Northwest  Level Estimated
09:44PM -13.5016 -54.9032 334° Northwest  Level Estimated
09:45PM -13.4072 -54.9514 334° Northwest  Level Estimated
09:46PM -13.3126 -54.9995 334° Northwest  Level Estimated
09:47PM -13.2181 -55.0476 334° Northwest  Level Estimated
09:48PM -13.1236 -55.0956 334° Northwest  Level Estimated
09:49PM -13.0290 -55.1437 334° Northwest  Level Estimated
09:50PM -12.9345 -55.1917 334° Northwest  Level Estimated
09:51PM -12.8399 -55.2396 334° Northwest  Level Estimated
09:52PM -12.7454 -55.2875 334° Northwest  Level Estimated
09:53PM -12.6508 -55.3354 334° Northwest  Level Estimated
09:54PM -12.5562 -55.3832 334° Northwest  Level Estimated
09:55PM -12.4616 -55.4310 334° Northwest  Level Estimated
09:56PM -12.3670 -55.4788 334° Northwest  Level Estimated
09:57PM -12.2724 -55.5265 334° Northwest  Level Estimated
09:58PM -12.1778 -55.5742 334° Northwest  Level Estimated
09:59PM -12.0832 -55.6219 334° Northwest  Level Estimated
10:00PM -11.9885 -55.6695 334° Northwest  Level Estimated
10:01PM -11.8939 -55.7171 334° Northwest  Level Estimated
10:02PM -11.7992 -55.7647 334° Northwest  Level Estimated
10:03PM -11.7046 -55.8122 334° Northwest  Level Estimated
10:04PM -11.6099 -55.8597 334° Northwest  Level Estimated
10:05PM -11.5152 -55.9072 334° Northwest  Level Estimated
10:06PM -11.4206 -55.9546 334° Northwest  Level Estimated
10:07PM -11.3259 -56.0020 334° Northwest  Level Estimated
10:08PM -11.2312 -56.0494 334° Northwest  Level Estimated
10:09PM -11.1365 -56.0967 334° Northwest  Level Estimated
10:10PM -11.0418 -56.1441 334° Northwest  Level Estimated
10:11PM -10.9470 -56.1913 334° Northwest  Level Estimated
10:12PM -10.8523 -56.2386 334° Northwest  Level Estimated
10:13PM -10.7576 -56.2858 334° Northwest  Level Estimated
10:14PM -10.6628 -56.3330 334° Northwest  Level Estimated
10:15PM -10.5681 -56.3801 334° Northwest  Level Estimated
10:16PM -10.4733 -56.4273 334° Northwest  Level Estimated
10:17PM -10.3786 -56.4744 334° Northwest  Level Estimated
10:18PM -10.2838 -56.5215 334° Northwest  Level Estimated
10:19PM -10.1890 -56.5685 334° Northwest  Level Estimated
10:20PM -10.0943 -56.6155 334° Northwest  Level Estimated
10:21PM -9.9995 -56.6625 334° Northwest  Level Estimated
10:22PM -9.9047 -56.7095 334° Northwest  Level Estimated
10:23PM -9.8099 -56.7564 334° Northwest  Level Estimated
10:24PM -9.7151 -56.8033 334° Northwest  Level Estimated
10:25PM -9.6203 -56.8502 334° Northwest  Level Estimated
10:26PM -9.5254 -56.8971 334° Northwest  Level Estimated
10:27PM -9.4306 -56.9439 334° Northwest  Level Estimated
10:28PM -9.3358 -56.9907 334° Northwest  Level Estimated
10:29PM -9.2409 -57.0375 334° Northwest  Level Estimated
10:30PM -9.1461 -57.0842 334° Northwest  Level Estimated
10:31PM -9.0513 -57.1310 334° Northwest  Level Estimated
10:32PM -8.9564 -57.1777 334° Northwest  Level Estimated
10:33PM -8.8615 -57.2243 334° Northwest  Level Estimated
10:34PM -8.7667 -57.2710 334° Northwest  Level Estimated
10:35PM -8.6718 -57.3176 334° Northwest  Level Estimated
10:36PM -8.5769 -57.3642 334° Northwest  Level Estimated
10:37PM -8.4820 -57.4108 334° Northwest  Level Estimated
10:38PM -8.3871 -57.4574 334° Northwest  Level Estimated
10:39PM -8.2922 -57.5039 334° Northwest  Level Estimated
10:40PM -8.1973 -57.5504 334° Northwest  Level Estimated
10:41PM -8.1024 -57.5969 334° Northwest  Level Estimated
10:42PM -8.0075 -57.6434 334° Northwest  Level Estimated
10:43PM -7.9126 -57.6899 334° Northwest  Level Estimated
10:44PM -7.8177 -57.7363 334° Northwest  Level Estimated
10:45PM -7.7227 -57.7827 334° Northwest  Level Estimated
10:46PM -7.6278 -57.8291 334° Northwest  Level Estimated
10:47PM -7.5329 -57.8755 334° Northwest  Level Estimated
10:48PM -7.4379 -57.9218 334° Northwest  Level Estimated
10:49PM -7.3430 -57.9681 334° Northwest  Level Estimated
10:50PM -7.2480 -58.0145 334° Northwest  Level Estimated
10:51PM -7.1531 -58.0607 334° Northwest  Level Estimated
10:52PM -7.0581 -58.1070 334° Northwest  Level Estimated
10:53PM -6.9631 -58.1533 334° Northwest  Level Estimated
10:54PM -6.8682 -58.1995 334° Northwest  Level Estimated
10:55PM -6.7732 -58.2457 334° Northwest  Level Estimated
10:56PM -6.6782 -58.2919 334° Northwest  Level Estimated
10:57PM -6.5832 -58.3381 334° Northwest  Level Estimated
10:58PM -6.4882 -58.3842 334° Northwest  Level Estimated
10:59PM -6.3933 -58.4304 334° Northwest  Level Estimated
11:00PM -6.2983 -58.4765 334° Northwest  Level Estimated
11:01PM -6.2033 -58.5226 334° Northwest  Level Estimated
11:02PM -6.1083 -58.5687 334° Northwest  Level Estimated
11:03PM -6.0132 -58.6148 334° Northwest  Level Estimated
11:04PM -5.9182 -58.6608 334° Northwest  Level Estimated
11:04PM -3.4060 -59.9850 334° Northwest 285 328 6,400  Level FlightAware
11:04PM -3.3660 -60.0030 336° Northwest 285 328 6,200 -1,260 Descending FlightAware
11:05PM -5.8232 -58.7069 334° Northwest  Level Estimated
11:06PM -3.2550 -60.0540 335° Northwest 275 316 3,800  Level FlightAware
11:06PM -3.2230 -60.0680 336° Northwest 269 310 3,200 -1,260 Descending FlightAware
11:07PM -3.1900 -60.0840 334° Northwest 264 304 2,600 -1,080 Descending FlightAware
11:07PM -3.1580 -60.0980 336° Northwest 268 308 2,200 -660 Descending FlightAware
11:08PM -3.1250 -60.1130 336° Northwest 249 287 2,000 -240 Descending FlightAware
11:08PM -3.0980 -60.1260 334° Northwest 223 257 2,000  Level FlightAware
11:09PM -3.0740 -60.1370 335° Northwest 190 219 2,000 -480 Level FlightAware
11:09PM -3.0520 -60.1450 340° North 172 198 1,600 -540 Descending FlightAware
11:10PM -3.0370 -60.1330 39° Northeast 152 175 1,500 -360 Descending FlightAware
11:10PM -3.0380 -60.1170 94° East 144 166 1,300 -720 Descending FlightAware
11:11PM -3.0390 -60.0990 93° East 140 161 900 -720 Descending FlightAware
11:11PM -3.0390 -60.0820 90° East 141 162 700 -420 Descending FlightAware
11:12PM -3.0390 -60.0540 90° East 146 168 400 -420 Descending FlightAware
11:13PM -3.0370 -60.0390 85° East 16 18 -300 Descending FlightAware
11:14PM -3.0386 -60.0497 85° East  Level Estimated
11:16PM -3.0386 -60.0497 261° West  Level Estimated
11:17PM -3.0386 -60.0497 225° Southwest  Level Estimated
11:18PM -3.0386 -60.0497 225° Southwest  Level Estimated
11:19PM -3.0386 -60.0497 225° Southwest  Level Estimated
11:20PM -3.0386 -60.0497 225° Southwest  Level Estimated
11:21PM -3.0386 -60.0497 225° Southwest  Level Estimated
11:22PM -3.0386 -60.0497 225° Southwest  Level Estimated
11:23PM -3.0386 -60.0497 225° Southwest  Level Estimated
11:24PM -3.0386 -60.0497 225° Southwest  Level Estimated
11:25PM -3.0386 -60.0497 225° Southwest  Level Estimated
11:26PM -3.0386 -60.0497 225° Southwest  Level Estimated
11:27PM -3.0386 -60.0497 225° Southwest  Level Estimated
11:28PM -3.0386 -60.0497 225° Southwest  Level Estimated
11:29PM -3.0386 -60.0497 225° Southwest  Level Estimated
11:30PM -3.0386 -60.0497 225° Southwest  Level Estimated
11:31PM -3.0386 -60.0497 225° Southwest  Level Estimated
11:32PM -3.0386 -60.0497 225° Southwest  Level Estimated
11:33PM -3.0386 -60.0497 225° Southwest  Level Estimated
11:34PM -3.0386 -60.0497 225° Southwest  Level Estimated
11:35PM -3.0386 -60.0497 225° Southwest  Level Estimated
11:36PM -3.0386 -60.0497 225° Southwest  Level Estimated
11:37PM -3.0386 -60.0497 225° Southwest  Level Estimated
11:38PM -3.0386 -60.0497 225° Southwest  Level Estimated
11:39PM -3.0386 -60.0497 225° Southwest  Level Estimated